الصفحة الرئيسية
METAR-TAF:

METAR-TAF

مطار :

يوانينا, اليونان

دائرة عرض: 39-41-47N, خط طول: 20-49-21E, ارتفاع: 475 متر

مراقبة الطقس الحالي

تاريخ ووقت الإصدار 32 دقيقة قبل الساعة 19:20UTC
رياح هادئة
درجة الحرارة 11°درجة مئوية
الرطوبة 94%
ضغط 1019 hPa

METAR: LGIO 291920Z AUTO 00000KT //// // ////// 11/10 Q1019 RE//

زمن: 22:52 (19:52 UTC)

توقعات

تاريخ ووقت الإصدار 2ساعات و 52 دقيقة قبل الساعة 17:00UTC
التوقعات صالحة من29 الساعة 18 UTC إلى 30 الساعة 03 UTC
ريح 3 عقدةمن اتجاهات متغيرة
الرؤية 10 كم أو أكثر
غيوم قليلة على ارتفاع 2500 قدم
غيوم متفرقة على ارتفاع 8000 قدم
أصبح
من 29 الساعة 21 UTC إلى 29 الساعة 23 UTC
غيوم متفرقة على ارتفاع 2000 قدم

TAF: LGIO 291700Z 2918/3003 VRB03KT 9999 FEW025 SCT080 BECMG 2921/2923 SCT020

أرصاد الطقس والتوقعات من أكثر من 4000 مطار (تقارير الطقس للمطار METAR والتنبؤ بالطقس بالمطارTAF).

المحطات المتاحة هي النقط الصفراء والحمراء على الخريطة.

حرك المؤشر فوق النقطة لمعرفة اسم المحطة.

ثم انقر لمعرفة أرصاد وتوقعات الطقس.

لتغيير الخارطة: اضغط على الأزرار الخضراء مع رمز الصليب الأسود للتكبير. على الزر الأخضر مع شرطة للتصغير، أو على الأسهم الخضراء للخرائط المجاورة.


METAR-TAF: